Terminal Aerodrome Forecast
Issued by NWS Sioux Falls, SD

Home | Current Version | Previous Version | Text Only | Print | Product List | Glossary On
Versions: 1 2 3 4 5 6 7 8 9 10 11 12 13 14 15 16
000
FTUS43 KFSD 311723
TAFFSD
TAF
KFSD 311723Z 3118/0118 13011KT P6SM SCT030 BKN110
     FM312100 12013G19KT P6SM SCT035 BKN100
     FM010100 13009KT P6SM OVC080
     FM010600 14010KT P6SM OVC050
     FM011500 15013G18KT P6SM OVC090=

USA.gov is the U.S. government's official web portal to all federal, state and local government web resources and services.